createdAt,value
2022-09-22T00:01:12.606Z,13.75
2022-09-22T00:03:41.508Z,13.79
2022-09-22T00:06:11.860Z,13.74
2022-09-22T00:08:41.725Z,13.92
2022-09-22T00:11:13.857Z,13.72
2022-09-22T00:13:44.685Z,13.84
2022-09-22T00:16:13.700Z,13.72
2022-09-22T00:18:41.585Z,13.73
2022-09-22T00:21:12.252Z,13.83
2022-09-22T00:23:40.645Z,13.82
2022-09-22T00:26:10.642Z,13.86
2022-09-22T00:28:38.757Z,13.78
2022-09-22T00:31:08.721Z,13.65
2022-09-22T00:33:37.947Z,13.66
2022-09-22T00:36:05.954Z,13.53
2022-09-22T00:38:34.007Z,13.16
2022-09-22T00:41:01.920Z,13.36
2022-09-22T00:43:32.424Z,13.41
2022-09-22T00:46:03.416Z,13.43
2022-09-22T00:48:35.872Z,13.33
2022-09-22T00:51:07.123Z,13.12
2022-09-22T00:53:36.232Z,13.18
2022-09-22T00:56:08.090Z,13.30
2022-09-22T00:58:38.889Z,12.82
2022-09-22T01:01:09.290Z,13.00
2022-09-22T01:03:40.042Z,12.84
2022-09-22T01:06:10.719Z,12.82
2022-09-22T01:08:38.599Z,12.79
2022-09-22T01:11:07.172Z,12.74
2022-09-22T01:13:44.257Z,12.86
2022-09-22T01:16:31.046Z,13.05
2022-09-22T01:19:24.100Z,12.96
2022-09-22T01:21:59.181Z,12.71
2022-09-22T01:24:54.907Z,12.57
2022-09-22T01:27:56.892Z,12.72
2022-09-22T01:30:26.965Z,12.61
2022-09-22T01:33:03.902Z,12.65
2022-09-22T01:35:35.724Z,12.61
2022-09-22T01:38:11.994Z,12.68
2022-09-22T01:40:45.404Z,12.55
2022-09-22T01:43:21.697Z,12.51
2022-09-22T01:45:51.808Z,12.53
2022-09-22T01:48:23.118Z,12.47
2022-09-22T01:50:53.783Z,12.47
2022-09-22T01:53:25.372Z,12.36
2022-09-22T01:55:55.849Z,12.27
2022-09-22T01:58:29.989Z,12.22
2022-09-22T02:01:03.071Z,12.40
2022-09-22T02:03:36.286Z,12.55
2022-09-22T02:06:10.318Z,12.63
2022-09-22T02:08:43.415Z,12.43
2022-09-22T02:11:15.748Z,12.41
2022-09-22T02:13:43.887Z,12.41
2022-09-22T02:16:14.373Z,12.19
2022-09-22T02:18:46.424Z,12.17
2022-09-22T02:21:15.872Z,12.36
2022-09-22T02:23:44.811Z,12.30
2022-09-22T02:26:14.452Z,12.31
2022-09-22T02:28:44.872Z,12.21
2022-09-22T02:31:20.391Z,12.12
2022-09-22T02:33:49.365Z,12.05
2022-09-22T02:36:35.391Z,12.38
2022-09-22T02:39:09.792Z,12.29
2022-09-22T02:41:47.256Z,12.41
2022-09-22T02:44:19.847Z,12.38
2022-09-22T02:46:54.264Z,12.25
2022-09-22T02:49:23.992Z,12.00
2022-09-22T02:51:51.794Z,12.18
2022-09-22T02:54:19.187Z,12.35
2022-09-22T02:56:46.679Z,12.44
2022-09-22T02:59:14.137Z,12.61
2022-09-22T03:01:41.891Z,12.46
2022-09-22T03:04:10.690Z,12.35
2022-09-22T03:06:38.595Z,12.41
2022-09-22T03:09:06.346Z,12.32
2022-09-22T03:11:33.805Z,12.36
2022-09-22T03:14:01.200Z,12.35
2022-09-22T03:16:28.578Z,12.12
2022-09-22T03:18:57.359Z,12.01
2022-09-22T03:21:26.201Z,11.93
2022-09-22T03:23:53.586Z,11.73
2022-09-22T03:26:20.997Z,11.47
2022-09-22T03:28:48.748Z,11.37
2022-09-22T03:31:16.182Z,11.63
2022-09-22T03:33:43.565Z,11.69
2022-09-22T03:36:11.001Z,11.93
2022-09-22T03:38:39.720Z,11.68
2022-09-22T03:41:07.123Z,11.73
2022-09-22T03:43:34.527Z,11.59
2022-09-22T03:46:03.504Z,11.43
2022-09-22T03:48:32.048Z,11.47
2022-09-22T03:50:59.543Z,11.51
2022-09-22T03:53:27.059Z,11.66
2022-09-22T03:56:06.220Z,11.74
2022-09-22T03:58:33.857Z,11.80
2022-09-22T04:01:01.335Z,11.76
2022-09-22T04:03:29.103Z,11.53
2022-09-22T04:05:56.650Z,11.46
2022-09-22T04:08:24.219Z,11.55
2022-09-22T04:10:51.756Z,11.55
2022-09-22T04:13:20.542Z,11.63
2022-09-22T04:15:47.985Z,11.45
2022-09-22T04:18:15.900Z,11.63
2022-09-22T04:20:45.245Z,11.33
2022-09-22T04:23:13.208Z,11.45
2022-09-22T04:25:40.677Z,11.58
2022-09-22T04:28:08.211Z,11.46
2022-09-22T04:30:37.722Z,11.44
2022-09-22T04:33:05.326Z,11.48
2022-09-22T04:35:33.187Z,11.47
2022-09-22T04:38:00.691Z,11.40
2022-09-22T04:40:28.400Z,11.29
2022-09-22T04:42:55.942Z,11.13
2022-09-22T04:45:23.623Z,11.30
2022-09-22T04:47:54.101Z,11.27
2022-09-22T04:50:23.515Z,11.53
2022-09-22T04:52:54.131Z,11.69
2022-09-22T04:55:22.663Z,11.75
2022-09-22T04:57:50.860Z,11.48
2022-09-22T05:00:19.368Z,11.41
2022-09-22T05:02:46.824Z,11.29
2022-09-22T05:05:16.268Z,11.43
2022-09-22T05:07:45.578Z,11.35
2022-09-22T05:10:13.816Z,11.39
2022-09-22T05:12:41.275Z,11.35
2022-09-22T05:15:10.470Z,11.32
2022-09-22T05:17:38.089Z,11.35
2022-09-22T05:20:06.570Z,11.51
2022-09-22T05:22:39.769Z,11.51
2022-09-22T05:25:10.742Z,11.50
2022-09-22T05:27:38.369Z,11.53
2022-09-22T05:30:06.724Z,11.50
2022-09-22T05:32:34.112Z,11.54
2022-09-22T05:35:01.489Z,11.53
2022-09-22T05:37:28.893Z,11.72
2022-09-22T05:39:57.574Z,11.79
2022-09-22T05:42:25.000Z,11.76
2022-09-22T05:44:52.404Z,11.80
2022-09-22T05:47:19.783Z,11.93
2022-09-22T05:49:47.210Z,12.07
2022-09-22T05:52:14.594Z,11.99
2022-09-22T05:54:42.796Z,11.74
2022-09-22T05:57:11.523Z,11.66
2022-09-22T05:59:38.894Z,11.93
2022-09-22T06:02:24.838Z,12.22
2022-09-22T06:04:53.669Z,12.25
2022-09-22T06:07:21.899Z,12.19
2022-09-22T06:09:49.987Z,12.12
2022-09-22T06:12:19.614Z,12.30
2022-09-22T06:14:47.016Z,12.38
2022-09-22T06:17:14.723Z,12.47
2022-09-22T06:19:43.184Z,12.58
2022-09-22T06:22:11.665Z,12.66
2022-09-22T06:24:39.069Z,12.36
2022-09-22T06:27:06.784Z,12.55
2022-09-22T06:29:36.543Z,12.69
2022-09-22T06:32:03.972Z,12.81
2022-09-22T06:34:32.947Z,12.62
2022-09-22T06:37:00.362Z,12.45
2022-09-22T06:39:27.754Z,12.70
2022-09-22T06:41:55.410Z,12.60
2022-09-22T06:44:22.879Z,12.78
2022-09-22T06:46:51.626Z,12.90
2022-09-22T06:49:19.623Z,12.75
2022-09-22T06:51:49.472Z,12.24
2022-09-22T06:54:16.873Z,12.93
2022-09-22T06:56:44.279Z,13.13
2022-09-22T06:59:12.877Z,13.32
2022-09-22T07:01:41.574Z,13.38
2022-09-22T07:04:12.153Z,13.28
2022-09-22T07:06:40.511Z,13.53
2022-09-22T07:09:09.323Z,13.48
2022-09-22T07:11:40.007Z,13.29
2022-09-22T07:14:08.768Z,13.16
2022-09-22T07:16:37.471Z,13.28
2022-09-22T07:19:05.811Z,13.92
2022-09-22T07:21:36.534Z,13.79
2022-09-22T07:24:05.476Z,14.01
2022-09-22T07:26:34.714Z,14.60
2022-09-22T07:29:06.026Z,14.71
2022-09-22T07:31:34.766Z,14.84
2022-09-22T07:34:02.603Z,14.75
2022-09-22T07:36:31.543Z,14.63
2022-09-22T07:39:08.048Z,14.58
2022-09-22T07:41:41.721Z,14.84
2022-09-22T07:44:28.177Z,14.89
2022-09-22T07:46:55.728Z,14.27
2022-09-22T07:49:23.200Z,14.96
2022-09-22T07:51:54.752Z,15.47
2022-09-22T07:54:24.461Z,15.78
2022-09-22T07:56:55.283Z,15.17
2022-09-22T07:59:22.986Z,15.34
2022-09-22T08:01:51.506Z,16.06
2022-09-22T08:04:21.111Z,16.23
2022-09-22T08:06:51.063Z,15.56
2022-09-22T08:09:19.401Z,15.02
2022-09-22T08:11:50.094Z,15.15
2022-09-22T08:14:18.567Z,15.46
2022-09-22T08:16:46.779Z,15.09
2022-09-22T08:19:15.071Z,15.25
2022-09-22T08:21:48.908Z,14.06
2022-09-22T08:24:22.068Z,15.15
2022-09-22T08:26:52.365Z,15.50
2022-09-22T08:29:20.164Z,15.61
2022-09-22T08:31:47.990Z,15.73
2022-09-22T08:34:17.499Z,15.78
2022-09-22T08:36:47.100Z,15.61
2022-09-22T08:39:15.256Z,15.59
2022-09-22T08:41:51.846Z,16.04
2022-09-22T08:44:23.910Z,15.12
2022-09-22T08:46:53.348Z,14.99
2022-09-22T08:49:43.505Z,14.84
2022-09-22T08:52:17.179Z,14.70
2022-09-22T08:54:45.596Z,15.12
2022-09-22T08:57:28.059Z,15.54
2022-09-22T09:00:04.169Z,16.28
2022-09-22T09:02:46.473Z,15.82
2022-09-22T09:05:44.900Z,15.04
2022-09-22T09:08:27.502Z,14.64
2022-09-22T09:10:57.989Z,15.34
2022-09-22T09:13:41.082Z,15.99
2022-09-22T09:16:37.937Z,15.43
2022-09-22T09:19:13.307Z,15.96
2022-09-22T09:21:51.595Z,16.39
2022-09-22T09:27:22.470Z,15.94
2022-09-22T09:30:02.787Z,16.21
2022-09-22T09:32:43.333Z,16.39
2022-09-22T09:35:14.488Z,16.30
2022-09-22T09:37:42.505Z,16.03
2022-09-22T09:40:17.245Z,16.39
2022-09-22T09:42:47.089Z,16.34
2022-09-22T09:45:16.307Z,16.50
2022-09-22T09:48:02.023Z,16.50
2022-09-22T09:50:32.010Z,16.04
2022-09-22T09:53:00.140Z,16.61
2022-09-22T09:55:28.171Z,16.14
2022-09-22T09:58:11.838Z,16.37
2022-09-22T10:00:56.620Z,16.35
2022-09-22T10:03:30.352Z,16.65
2022-09-22T10:06:02.776Z,16.69
2022-09-22T10:08:36.395Z,16.58
2022-09-22T10:11:05.179Z,16.71
2022-09-22T10:13:35.244Z,16.71
2022-09-22T10:16:19.631Z,16.86
2022-09-22T10:18:49.292Z,16.84
2022-09-22T10:21:18.749Z,17.01
2022-09-22T10:23:48.159Z,17.22
2022-09-22T10:26:27.135Z,16.65
2022-09-22T10:29:12.188Z,16.57
2022-09-22T10:31:41.190Z,16.78
2022-09-22T10:34:30.169Z,16.28
2022-09-22T10:36:59.430Z,16.92
2022-09-22T10:39:36.327Z,16.98
2022-09-22T10:42:07.874Z,16.83
2022-09-22T10:44:39.290Z,16.85
2022-09-22T10:47:27.299Z,16.72
2022-09-22T10:50:25.266Z,16.61
2022-09-22T10:52:57.315Z,16.74
2022-09-22T10:55:31.347Z,16.73
2022-09-22T10:58:42.764Z,16.81
2022-09-22T11:01:27.241Z,17.00
2022-09-22T11:04:12.179Z,17.02
2022-09-22T11:07:13.991Z,17.11
2022-09-22T11:10:06.678Z,16.20
2022-09-22T11:12:47.011Z,17.15
2022-09-22T11:15:28.121Z,17.47
2022-09-22T11:18:09.269Z,16.51
2022-09-22T11:20:38.572Z,17.25
2022-09-22T11:23:37.014Z,17.73
2022-09-22T11:26:18.587Z,17.74
2022-09-22T11:29:01.943Z,17.92
2022-09-22T11:31:42.818Z,17.95
2022-09-22T11:34:30.826Z,18.18
2022-09-22T11:37:25.610Z,18.06
2022-09-22T11:40:15.561Z,17.55
2022-09-22T11:42:53.130Z,17.59
2022-09-22T11:45:38.012Z,17.85
2022-09-22T11:48:12.243Z,17.94
2022-09-22T11:51:02.056Z,18.09
2022-09-22T11:54:04.013Z,18.18
2022-09-22T11:56:43.787Z,18.08
2022-09-22T11:59:18.198Z,17.90
2022-09-22T12:01:48.282Z,17.75
2022-09-22T12:04:23.569Z,17.72
2022-09-22T12:06:56.792Z,16.85
2022-09-22T12:09:35.909Z,16.59
2022-09-22T12:12:07.436Z,17.02
2022-09-22T12:14:36.158Z,17.04
2022-09-22T12:17:09.187Z,17.38
2022-09-22T12:19:49.972Z,17.79
2022-09-22T12:22:22.787Z,17.90
2022-09-22T12:24:50.431Z,17.87
2022-09-22T12:27:22.971Z,16.87
2022-09-22T12:29:59.226Z,16.52
2022-09-22T12:32:37.605Z,16.47
2022-09-22T12:35:06.563Z,16.86
2022-09-22T12:37:37.319Z,17.10
2022-09-22T12:40:23.421Z,16.58
2022-09-22T12:42:54.422Z,17.00
2022-09-22T12:45:29.972Z,17.93
2022-09-22T12:48:00.166Z,18.20
2022-09-22T12:50:40.486Z,18.17
2022-09-22T12:53:13.054Z,17.79
2022-09-22T12:55:40.711Z,17.95
2022-09-22T12:58:44.217Z,17.74
2022-09-22T13:01:33.378Z,17.95
2022-09-22T13:04:12.190Z,18.34
2022-09-22T13:06:57.608Z,18.40
2022-09-22T13:09:28.521Z,18.29
2022-09-22T13:12:27.974Z,18.28
2022-09-22T13:15:11.164Z,18.18
2022-09-22T13:17:43.288Z,18.33
2022-09-22T13:20:16.654Z,18.45
2022-09-22T13:22:44.480Z,18.46
2022-09-22T13:25:17.232Z,18.46
2022-09-22T13:27:45.322Z,18.35
2022-09-22T13:30:15.635Z,18.66
2022-09-22T13:32:53.281Z,18.40
2022-09-22T13:35:27.803Z,18.13
2022-09-22T13:37:57.347Z,18.23
2022-09-22T13:40:29.472Z,18.46
2022-09-22T13:43:00.765Z,17.90
2022-09-22T13:45:30.427Z,17.53
2022-09-22T13:48:08.538Z,17.33
2022-09-22T13:50:42.211Z,17.01
2022-09-22T13:53:09.758Z,17.45
2022-09-22T13:55:38.262Z,16.97
2022-09-22T13:58:13.160Z,17.10
2022-09-22T14:01:11.421Z,17.50
2022-09-22T14:03:38.045Z,17.43
2022-09-22T14:06:10.070Z,17.29
2022-09-22T14:08:37.940Z,17.05
2022-09-22T14:11:09.155Z,17.42
2022-09-22T14:13:37.851Z,16.78
2022-09-22T14:16:14.545Z,17.21
2022-09-22T14:18:45.994Z,17.44
2022-09-22T14:21:14.037Z,17.31
2022-09-22T14:23:46.967Z,17.28
2022-09-22T14:26:33.237Z,17.07
2022-09-22T14:29:15.129Z,17.26
2022-09-22T14:31:46.502Z,17.04
2022-09-22T14:34:19.746Z,17.22
2022-09-22T14:36:49.566Z,17.30
2022-09-22T14:39:20.565Z,17.19
2022-09-22T14:41:53.110Z,17.27
2022-09-22T14:44:26.827Z,17.33
2022-09-22T14:46:57.113Z,17.25
2022-09-22T14:49:39.457Z,17.79
2022-09-22T14:52:14.956Z,18.03
2022-09-22T14:54:44.582Z,17.61
2022-09-22T14:57:16.432Z,17.16
2022-09-22T15:00:11.004Z,17.44
2022-09-22T15:02:44.475Z,17.87
2022-09-22T15:05:26.391Z,18.09
2022-09-22T15:07:56.535Z,17.99
2022-09-22T15:10:27.907Z,18.11
2022-09-22T15:12:59.367Z,18.20
2022-09-22T15:15:29.147Z,18.06
2022-09-22T15:18:15.680Z,18.05
2022-09-22T15:20:46.574Z,17.96
2022-09-22T15:23:16.774Z,17.95
2022-09-22T15:25:44.911Z,18.03
2022-09-22T15:28:13.847Z,17.69
2022-09-22T15:30:42.413Z,17.87
2022-09-22T15:33:15.441Z,17.97
2022-09-22T15:35:44.669Z,17.85
2022-09-22T15:38:17.414Z,17.86
2022-09-22T15:40:45.841Z,17.53
2022-09-22T15:43:14.983Z,17.80
2022-09-22T15:45:48.745Z,17.83
2022-09-22T15:48:39.450Z,18.00
2022-09-22T15:51:10.569Z,17.84
2022-09-22T15:53:38.668Z,17.70
2022-09-22T15:56:08.451Z,17.76
2022-09-22T15:58:38.108Z,17.77
2022-09-22T16:01:07.866Z,17.75
2022-09-22T16:03:40.961Z,17.84
2022-09-22T16:06:14.083Z,17.71
2022-09-22T16:08:43.867Z,17.67
2022-09-22T16:11:14.042Z,17.58
2022-09-22T16:13:42.235Z,17.57
2022-09-22T16:16:10.651Z,17.54
2022-09-22T16:18:42.037Z,17.48
2022-09-22T16:21:26.110Z,17.51
2022-09-22T16:23:54.743Z,17.55
2022-09-22T16:26:22.528Z,17.40
2022-09-22T16:28:49.953Z,17.35
2022-09-22T16:31:19.058Z,17.23
2022-09-22T16:33:46.635Z,17.27
2022-09-22T16:36:14.054Z,17.18
2022-09-22T16:38:42.880Z,17.13
2022-09-22T16:41:19.961Z,17.05
2022-09-22T16:43:47.700Z,17.01
2022-09-22T16:46:30.142Z,17.06
2022-09-22T16:49:00.153Z,16.86
2022-09-22T16:51:28.558Z,16.91
2022-09-22T16:53:57.616Z,16.79
2022-09-22T16:56:26.540Z,16.83
2022-09-22T16:58:55.235Z,16.81
2022-09-22T17:01:23.713Z,16.70
2022-09-22T17:03:52.870Z,16.63
2022-09-22T17:06:23.021Z,16.54
2022-09-22T17:08:50.988Z,16.60
2022-09-22T17:11:23.300Z,16.52
2022-09-22T17:13:54.166Z,16.43
2022-09-22T17:16:24.657Z,16.32
2022-09-22T17:18:52.488Z,16.22
2022-09-22T17:21:22.288Z,16.21
2022-09-22T17:23:52.505Z,16.18
2022-09-22T17:26:22.267Z,16.02
2022-09-22T17:28:51.629Z,15.96
2022-09-22T17:31:19.136Z,15.79
2022-09-22T17:33:51.970Z,15.83
2022-09-22T17:36:23.823Z,15.84
2022-09-22T17:38:53.141Z,15.90
2022-09-22T17:41:24.051Z,15.80
2022-09-22T17:43:55.784Z,15.83
2022-09-22T17:46:23.968Z,15.76
2022-09-22T17:49:09.342Z,15.84
2022-09-22T17:51:58.994Z,15.94
2022-09-22T17:54:45.734Z,15.97
2022-09-22T17:57:16.070Z,15.73
2022-09-22T17:59:43.506Z,15.70
2022-09-22T18:02:13.913Z,15.73
2022-09-22T18:04:41.368Z,15.66
2022-09-22T18:07:10.725Z,15.56
2022-09-22T18:09:40.826Z,15.49
2022-09-22T18:12:10.776Z,15.56
2022-09-22T18:14:42.381Z,15.43
2022-09-22T18:17:11.106Z,15.34
2022-09-22T18:19:38.583Z,15.25
2022-09-22T18:22:07.915Z,15.27
2022-09-22T18:24:36.093Z,15.17
2022-09-22T18:27:03.954Z,15.13
2022-09-22T18:29:31.995Z,15.43
2022-09-22T18:32:01.255Z,15.28
2022-09-22T18:34:31.784Z,15.24
2022-09-22T18:36:59.719Z,15.06
2022-09-22T18:39:27.894Z,15.17
2022-09-22T18:41:56.496Z,14.80
2022-09-22T18:44:25.275Z,14.74
2022-09-22T18:46:53.886Z,14.82
2022-09-22T18:49:22.849Z,14.71
2022-09-22T18:51:50.361Z,14.80
2022-09-22T18:54:19.569Z,14.70
2022-09-22T18:56:48.545Z,14.67
2022-09-22T18:59:18.750Z,14.87
2022-09-22T19:01:48.691Z,14.65
2022-09-22T19:04:19.218Z,14.65
2022-09-22T19:07:07.980Z,14.88
2022-09-22T19:09:35.972Z,14.77
2022-09-22T19:12:06.891Z,14.68
2022-09-22T19:14:38.727Z,14.59
2022-09-22T19:17:07.189Z,14.55
2022-09-22T19:19:37.042Z,14.51
2022-09-22T19:22:08.711Z,14.55
2022-09-22T19:24:36.529Z,14.29
2022-09-22T19:27:04.740Z,14.34
2022-09-22T19:29:32.425Z,14.34
2022-09-22T19:32:00.646Z,14.37
2022-09-22T19:34:28.291Z,14.32
2022-09-22T19:36:56.380Z,14.29
2022-09-22T19:39:26.379Z,14.28
2022-09-22T19:41:54.874Z,14.25
2022-09-22T19:44:23.630Z,14.13
2022-09-22T19:46:51.335Z,14.09
2022-09-22T19:49:18.884Z,14.05
2022-09-22T19:51:46.831Z,13.98
2022-09-22T19:54:14.563Z,14.18
2022-09-22T19:56:43.426Z,14.45
2022-09-22T19:59:11.013Z,14.47
2022-09-22T20:01:41.188Z,14.61
2022-09-22T20:04:15.083Z,14.34
2022-09-22T20:06:42.835Z,14.20
2022-09-22T20:09:10.233Z,14.47
2022-09-22T20:11:39.829Z,14.43
2022-09-22T20:14:23.747Z,14.32
2022-09-22T20:16:53.519Z,14.28
2022-09-22T20:19:21.822Z,14.22
2022-09-22T20:21:51.136Z,13.92
2022-09-22T20:24:21.399Z,13.81
2022-09-22T20:26:49.052Z,13.89
2022-09-22T20:29:19.019Z,13.89
2022-09-22T20:31:46.591Z,13.89
2022-09-22T20:34:15.600Z,13.84
2022-09-22T20:36:44.148Z,13.91
2022-09-22T20:39:15.001Z,13.72
2022-09-22T20:41:43.782Z,13.87
2022-09-22T20:44:14.599Z,13.81
2022-09-22T20:46:43.976Z,13.66
2022-09-22T20:49:13.728Z,13.64
2022-09-22T20:51:41.608Z,13.77
2022-09-22T20:54:09.404Z,13.64
2022-09-22T20:56:40.791Z,13.72
2022-09-22T20:59:10.202Z,13.68
2022-09-22T21:01:37.750Z,13.48
2022-09-22T21:04:07.066Z,13.42
2022-09-22T21:06:34.767Z,13.42
2022-09-22T21:09:31.536Z,13.32
2022-09-22T21:11:58.999Z,13.27
2022-09-22T21:14:26.379Z,13.19
2022-09-22T21:16:53.832Z,13.25
2022-09-22T21:19:22.758Z,13.27
2022-09-22T21:21:50.117Z,13.20
2022-09-22T21:24:17.574Z,13.23
2022-09-22T21:26:44.965Z,13.21
2022-09-22T21:29:12.442Z,13.27
2022-09-22T21:31:39.867Z,13.28
2022-09-22T21:34:07.288Z,13.20
2022-09-22T21:36:36.105Z,13.22
2022-09-22T21:39:03.576Z,13.02
2022-09-22T21:41:32.751Z,13.11
2022-09-22T21:44:00.339Z,13.03
2022-09-22T21:46:29.932Z,13.02
2022-09-22T21:49:01.495Z,13.18
2022-09-22T21:51:30.405Z,13.10
2022-09-22T21:53:59.328Z,13.16
2022-09-22T21:56:26.918Z,13.02
2022-09-22T21:58:55.481Z,13.07
2022-09-22T22:01:24.842Z,13.03
2022-09-22T22:03:54.432Z,13.14
2022-09-22T22:06:24.107Z,13.06
2022-09-22T22:08:53.723Z,12.93
2022-09-22T22:11:24.978Z,12.93
2022-09-22T22:13:54.379Z,12.92
2022-09-22T22:16:23.915Z,12.93
2022-09-22T22:18:51.786Z,12.85
2022-09-22T22:21:22.681Z,12.86
2022-09-22T22:23:52.299Z,12.70
2022-09-22T22:26:24.045Z,12.66
2022-09-22T22:28:53.332Z,12.70
2022-09-22T22:31:22.952Z,12.63
2022-09-22T22:33:50.854Z,12.60
2022-09-22T22:36:19.359Z,12.68
2022-09-22T22:38:46.775Z,12.68
2022-09-22T22:41:16.554Z,12.72
2022-09-22T22:43:47.836Z,12.71
2022-09-22T22:46:16.589Z,12.83
2022-09-22T22:48:44.625Z,12.73
2022-09-22T22:51:15.061Z,12.72
2022-09-22T22:53:43.235Z,12.58
2022-09-22T22:56:16.174Z,12.42
2022-09-22T22:58:46.696Z,12.44
2022-09-22T23:01:17.511Z,12.50
2022-09-22T23:03:46.922Z,12.29
2022-09-22T23:06:16.118Z,12.23
2022-09-22T23:08:44.527Z,12.27
2022-09-22T23:11:13.745Z,12.20
2022-09-22T23:13:50.798Z,12.25
2022-09-22T23:16:20.531Z,12.18
2022-09-22T23:18:48.992Z,12.24
2022-09-22T23:21:18.034Z,12.35
2022-09-22T23:23:45.781Z,12.31
2022-09-22T23:26:14.712Z,12.24
2022-09-22T23:28:43.218Z,12.19
2022-09-22T23:31:13.549Z,12.21
2022-09-22T23:33:42.938Z,12.22
2022-09-22T23:36:16.796Z,12.18
2022-09-22T23:38:45.008Z,12.21
2022-09-22T23:41:13.839Z,12.26
2022-09-22T23:43:41.304Z,12.17
2022-09-22T23:46:08.744Z,12.01
2022-09-22T23:48:37.631Z,12.06
2022-09-22T23:51:05.391Z,12.22
2022-09-22T23:53:35.305Z,12.12
2022-09-22T23:56:03.539Z,12.18
2022-09-22T23:58:34.957Z,12.12
